Time;durP1;ratioP1;P1;durP2;ratioP2;P2;SDS_P1;SDS_P2;PMS_P1;PMS_P2;Temp;Humidity;BMP_temperature;BMP_pressure;BME280_temperature;BME280_humidity;BME280_pressure;Samples;Min_cycle;Max_cycle;Signal;HPM_P1;HPM_P2
2021/09/26 00:01:09;;;;;;;5.27;4.87;;;19.60;96.40;;;;;;6154933;23;21282;-86
2021/09/26 00:03:46;;;;;;;5.70;5.20;;;19.50;96.30;;;;;;6162053;23;20526;-86
2021/09/26 00:06:13;;;;;;;5.37;4.87;;;19.50;96.30;;;;;;6160620;23;20476;-85
2021/09/26 00:08:40;;;;;;;4.33;3.93;;;19.50;96.20;;;;;;6161911;23;20536;-84
2021/09/26 00:11:07;;;;;;;5.27;4.77;;;19.40;96.30;;;;;;6158557;23;20424;-85
2021/09/26 00:13:36;;;;;;;6.90;5.23;;;19.40;96.00;;;;;;6164291;23;20438;-91
2021/09/26 00:16:04;;;;;;;6.60;5.00;;;19.40;96.00;;;;;;6164134;23;20485;-86
2021/09/26 00:18:31;;;;;;;4.70;4.23;;;19.20;96.40;;;;;;6160636;23;20440;-85
2021/09/26 00:20:58;;;;;;;5.13;4.67;;;19.20;96.60;;;;;;6157536;23;20441;-86
2021/09/26 00:23:25;;;;;;;5.40;4.90;;;19.30;96.30;;;;;;6158030;23;20453;-87
2021/09/26 00:25:54;;;;;;;5.97;5.23;;;19.50;96.00;;;;;;6162745;23;20697;-86
2021/09/26 00:28:22;;;;;;;5.27;4.80;;;19.60;95.60;;;;;;6160306;23;20437;-87
2021/09/26 00:30:50;;;;;;;7.80;4.97;;;19.60;95.30;;;;;;6161314;23;20421;-85
2021/09/26 00:33:17;;;;;;;5.40;4.90;;;19.50;95.50;;;;;;6157872;23;20441;-86
2021/09/26 00:35:44;;;;;;;5.70;5.20;;;19.50;95.80;;;;;;6160522;23;20446;-85
2021/09/26 00:38:11;;;;;;;6.53;4.67;;;19.40;96.10;;;;;;6160345;23;20969;-83
2021/09/26 00:40:38;;;;;;;5.40;4.90;;;19.30;96.10;;;;;;6158733;23;20532;-85
2021/09/26 00:43:05;;;;;;;5.00;4.60;;;19.30;96.50;;;;;;6159475;23;20414;-87
2021/09/26 00:45:32;;;;;;;7.53;5.17;;;19.40;96.30;;;;;;6108948;23;20421;-86
2021/09/26 00:47:59;;;;;;;4.50;4.07;;;19.40;96.10;;;;;;6119020;23;20497;-85
2021/09/26 00:50:28;;;;;;;5.67;5.17;;;19.40;96.00;;;;;;6158234;23;20875;-85
2021/09/26 00:52:55;;;;;;;5.83;5.33;;;19.30;96.00;;;;;;6161904;23;20426;-88
2021/09/26 00:55:22;;;;;;;5.63;5.20;;;19.20;96.10;;;;;;6160334;23;20421;-85
2021/09/26 00:57:49;;;;;;;5.40;4.83;;;19.00;96.30;;;;;;6159557;23;20414;-86
2021/09/26 01:00:18;;;;;;;6.80;5.20;;;19.00;96.80;;;;;;6163729;23;20838;-83
2021/09/26 01:02:47;;;;;;;5.17;4.67;;;19.10;96.80;;;;;;6155669;23;20437;-85
2021/09/26 01:05:14;;;;;;;7.37;5.60;;;19.20;96.60;;;;;;6160240;23;20549;-84
2021/09/26 01:07:52;;;;;;;6.20;5.03;;;19.10;96.60;;;;;;6161611;23;21434;-84
2021/09/26 01:10:49;;;;;;;5.10;4.70;;;19.30;96.40;;;;;;6165104;23;20421;-84
2021/09/26 01:13:29;;;;;;;6.10;5.37;;;19.40;96.40;;;;;;6160007;23;20409;-87
2021/09/26 01:16:20;;;;;;;5.80;5.30;;;19.50;96.20;;;;;;6165009;23;20409;-86
2021/09/26 01:19:18;;;;;;;5.90;4.80;;;19.40;96.10;;;;;;6147619;23;20903;-85
2021/09/26 01:22:00;;;;;;;5.13;4.67;;;19.40;96.40;;;;;;6112708;23;20402;-85
2021/09/26 01:24:48;;;;;;;5.50;5.00;;;19.20;96.40;;;;;;6159200;23;20489;-86
2021/09/26 01:27:24;;;;;;;5.60;5.10;;;19.10;96.80;;;;;;6151292;23;20412;-86
2021/09/26 01:30:17;;;;;;;5.90;5.40;;;19.10;96.60;;;;;;6161229;23;20469;-90
2021/09/26 01:33:02;;;;;;;5.83;4.70;;;19.10;97.00;;;;;;6161074;23;20485;-85
2021/09/26 01:35:33;;;;;;;6.17;5.63;;;19.00;96.90;;;;;;6161363;23;20405;-84
2021/09/26 01:38:06;;;;;;;5.43;4.90;;;18.90;97.10;;;;;;6155877;23;20430;-86
2021/09/26 01:40:47;;;;;;;6.53;5.47;;;19.20;97.10;;;;;;6166809;23;20460;-84
2021/09/26 01:43:18;;;;;;;5.40;4.90;;;19.30;96.90;;;;;;6165161;23;20402;-86
2021/09/26 01:45:49;;;;;;;5.47;4.97;;;19.40;96.50;;;;;;6166797;23;20400;-84
2021/09/26 01:48:22;;;;;;;5.07;4.23;;;19.40;96.70;;;;;;6164389;23;20440;-85
2021/09/26 01:50:55;;;;;;;5.30;4.80;;;19.30;96.80;;;;;;6172835;23;20935;-86
2021/09/26 01:53:24;;;;;;;5.30;4.90;;;19.40;96.60;;;;;;6174560;23;20409;-86
2021/09/26 01:56:01;;;;;;;5.53;5.07;;;19.40;96.60;;;;;;6171150;23;20419;-84
2021/09/26 01:58:29;;;;;;;5.50;5.00;;;19.50;96.40;;;;;;6166491;23;20457;-86
2021/09/26 02:00:56;;;;;;;6.40;5.30;;;19.50;96.40;;;;;;6179467;23;20430;-87
2021/09/26 02:03:25;;;;;;;5.30;4.80;;;19.50;96.30;;;;;;6185293;23;20444;-86
2021/09/26 02:05:53;;;;;;;5.67;5.20;;;19.30;96.50;;;;;;6181801;23;20441;-88
2021/09/26 02:08:21;;;;;;;5.53;5.03;;;19.30;96.70;;;;;;6186767;23;20885;-87
2021/09/26 02:10:59;;;;;;;5.97;5.37;;;19.40;96.70;;;;;;6184179;23;20430;-86
2021/09/26 02:13:46;;;;;;;5.20;4.80;;;19.30;96.70;;;;;;6185145;23;20413;-86
2021/09/26 02:16:14;;;;;;;5.47;4.97;;;19.20;97.00;;;;;;6172513;23;20422;-86
2021/09/26 02:18:44;;;;;;;6.03;5.40;;;19.30;97.20;;;;;;6163731;23;20754;-84
2021/09/26 02:21:12;;;;;;;6.03;5.53;;;19.20;97.20;;;;;;6166049;23;21121;-86
2021/09/26 02:23:39;;;;;;;7.40;5.93;;;19.40;97.50;;;;;;6164486;23;20378;-85
2021/09/26 02:26:07;;;;;;;5.67;5.17;;;19.40;97.30;;;;;;6167438;23;20960;-85
2021/09/26 02:28:41;;;;;;;5.63;5.13;;;19.20;97.50;;;;;;6177160;23;20414;-87
2021/09/26 02:31:08;;;;;;;6.00;4.80;;;19.30;97.70;;;;;;6179235;23;20402;-89
2021/09/26 02:33:36;;;;;;;5.60;5.07;;;19.50;97.20;;;;;;6180860;23;20413;-85
2021/09/26 02:36:06;;;;;;;7.93;5.90;;;19.50;97.00;;;;;;6181005;23;20413;-85
2021/09/26 02:38:34;;;;;;;7.53;5.40;;;19.30;97.50;;;;;;6164665;23;20527;-88
2021/09/26 02:41:08;;;;;;;5.87;5.37;;;19.40;97.60;;;;;;6171665;23;20462;-86
2021/09/26 02:43:45;;;;;;;5.53;5.03;;;19.40;97.60;;;;;;6166357;23;20398;-86
2021/09/26 02:46:22;;;;;;;5.43;4.97;;;19.20;97.80;;;;;;6166906;23;20409;-85
2021/09/26 02:49:01;;;;;;;6.23;5.73;;;19.10;98.20;;;;;;6157761;23;20429;-86
2021/09/26 02:51:34;;;;;;;5.80;5.30;;;19.40;98.00;;;;;;6156244;23;20414;-84
2021/09/26 02:54:03;;;;;;;6.17;5.67;;;19.40;98.20;;;;;;6155711;23;20496;-84
2021/09/26 02:56:31;;;;;;;5.77;4.93;;;19.30;98.50;;;;;;6151290;23;20398;-85
2021/09/26 02:59:02;;;;;;;7.60;5.53;;;19.30;98.60;;;;;;6154399;23;20480;-85
2021/09/26 03:01:30;;;;;;;5.77;5.30;;;19.20;98.70;;;;;;6160641;23;20426;-87
2021/09/26 03:04:05;;;;;;;5.73;5.13;;;19.30;98.90;;;;;;6163931;23;20448;-83
2021/09/26 03:06:35;;;;;;;7.53;6.77;;;19.40;99.10;;;;;;6151526;23;20410;-84
2021/09/26 03:09:01;;;;;;;6.30;5.70;;;19.40;99.20;;;;;;6162518;23;20426;-84
2021/09/26 03:11:28;;;;;;;7.03;5.43;;;19.30;99.50;;;;;;6168978;23;20449;-85
2021/09/26 03:13:55;;;;;;;6.50;5.90;;;19.10;99.90;;;;;;6165197;23;20481;-83
2021/09/26 03:16:22;;;;;;;8.00;5.60;;;19.20;99.90;;;;;;6167924;23;20764;-86
2021/09/26 03:18:49;;;;;;;7.90;5.93;;;19.20;99.90;;;;;;6165477;23;20470;-86
2021/09/26 03:21:15;;;;;;;5.53;5.13;;;19.20;99.90;;;;;;6142314;23;20501;-85
2021/09/26 03:23:42;;;;;;;5.90;5.07;;;19.20;99.90;;;;;;6167506;23;20468;-86
2021/09/26 03:26:09;;;;;;;6.40;5.67;;;19.20;99.90;;;;;;6168918;23;20406;-85
2021/09/26 03:28:36;;;;;;;6.07;5.47;;;19.20;99.90;;;;;;6170942;23;20497;-85
2021/09/26 03:31:03;;;;;;;6.17;5.57;;;19.20;99.90;;;;;;6168894;23;20507;-85
2021/09/26 03:33:31;;;;;;;6.13;5.63;;;19.20;99.90;;;;;;6143644;23;20418;-85
2021/09/26 03:35:58;;;;;;;7.80;6.20;;;19.10;99.90;;;;;;6170484;23;20868;-89
2021/09/26 03:38:25;;;;;;;7.77;5.60;;;19.10;99.90;;;;;;6165944;23;20462;-86
2021/09/26 03:40:52;;;;;;;6.90;6.30;;;19.10;99.90;;;;;;6135812;23;21364;-85
2021/09/26 03:43:22;;;;;;;6.30;5.70;;;19.10;99.90;;;;;;6164778;23;20425;-86
2021/09/26 03:45:51;;;;;;;6.20;5.60;;;19.20;99.90;;;;;;6139163;23;20448;-86
2021/09/26 03:48:20;;;;;;;8.93;5.80;;;19.20;99.90;;;;;;6165724;23;20425;-89
2021/09/26 03:50:48;;;;;;;6.67;6.07;;;19.10;99.90;;;;;;6148705;23;20457;-86
2021/09/26 03:53:18;;;;;;;6.00;5.47;;;19.10;99.90;;;;;;6165377;23;20433;-86
2021/09/26 03:55:45;;;;;;;7.27;6.20;;;19.00;99.90;;;;;;6166166;23;20422;-85
2021/09/26 03:58:12;;;;;;;7.17;5.93;;;18.90;99.90;;;;;;6138988;23;20497;-89
2021/09/26 04:00:39;;;;;;;6.43;5.83;;;18.80;99.90;;;;;;6154024;23;20993;-87
2021/09/26 04:03:06;;;;;;;6.83;6.23;;;18.80;99.90;;;;;;6166061;23;20414;-85
2021/09/26 04:05:33;;;;;;;6.57;6.07;;;18.80;99.90;;;;;;6165797;23;20410;-85
2021/09/26 04:08:00;;;;;;;7.03;6.27;;;18.80;99.90;;;;;;6163086;23;20449;-85
2021/09/26 04:10:26;;;;;;;6.30;5.70;;;19.10;99.90;;;;;;6169007;23;20410;-87
2021/09/26 04:12:53;;;;;;;6.87;6.30;;;19.00;99.90;;;;;;6172623;23;20889;-85
2021/09/26 04:15:20;;;;;;;7.63;7.03;;;19.20;99.90;;;;;;6171510;23;20437;-86
2021/09/26 04:17:47;;;;;;;11.30;6.80;;;19.20;99.90;;;;;;6160970;23;20410;-85
2021/09/26 04:20:14;;;;;;;7.93;7.13;;;19.20;99.90;;;;;;6173585;23;20534;-88
2021/09/26 04:22:41;;;;;;;8.17;7.00;;;19.40;99.90;;;;;;6168788;23;20953;-86
2021/09/26 04:25:08;;;;;;;8.00;6.47;;;19.20;99.90;;;;;;6174351;23;20409;-86
2021/09/26 04:27:35;;;;;;;7.10;6.27;;;19.10;99.90;;;;;;6164267;23;20469;-86
2021/09/26 04:30:05;;;;;;;7.30;6.60;;;18.90;99.90;;;;;;6143948;23;20470;-85
2021/09/26 04:32:33;;;;;;;7.50;6.73;;;19.00;99.90;;;;;;6131179;23;20479;-85
2021/09/26 04:35:00;;;;;;;7.10;6.40;;;19.20;99.90;;;;;;6124693;23;20417;-85
2021/09/26 04:37:27;;;;;;;7.17;6.00;;;19.20;99.90;;;;;;6140656;23;20414;-84
2021/09/26 04:39:54;;;;;;;7.40;6.47;;;19.00;99.90;;;;;;6164691;23;20509;-87
2021/09/26 04:42:21;;;;;;;7.77;6.97;;;19.00;99.90;;;;;;6165613;23;20718;-89
2021/09/26 04:44:48;;;;;;;6.40;5.80;;;19.00;99.90;;;;;;6166079;23;20451;-85
2021/09/26 04:47:15;;;;;;;7.50;6.80;;;18.90;99.90;;;;;;6165842;23;20498;-86
2021/09/26 04:49:42;;;;;;;7.93;6.03;;;19.00;99.90;;;;;;6167082;23;20506;-88
2021/09/26 04:52:08;;;;;;;6.70;6.10;;;19.00;99.90;;;;;;6163126;23;20417;-86
2021/09/26 04:54:36;;;;;;;7.50;6.83;;;18.90;99.90;;;;;;6167118;23;20510;-86
2021/09/26 04:57:03;;;;;;;6.80;6.20;;;18.80;99.90;;;;;;6167810;23;20413;-85
2021/09/26 04:59:30;;;;;;;7.40;6.80;;;19.00;99.90;;;;;;6166164;23;20794;-88
2021/09/26 05:01:59;;;;;;;7.10;6.50;;;19.00;99.90;;;;;;6166796;23;20493;-87
2021/09/26 05:04:27;;;;;;;7.63;6.87;;;18.90;99.90;;;;;;6165268;23;20477;-86
2021/09/26 05:06:54;;;;;;;6.77;5.93;;;18.90;99.90;;;;;;6162881;23;20413;-85
2021/09/26 05:09:21;;;;;;;7.13;6.43;;;18.90;99.90;;;;;;6164178;23;20433;-85
2021/09/26 05:11:52;;;;;;;6.57;5.97;;;18.80;99.90;;;;;;6167773;23;20564;-84
2021/09/26 05:14:20;;;;;;;9.37;7.10;;;18.80;99.90;;;;;;6140160;23;20426;-85
2021/09/26 05:16:47;;;;;;;6.70;6.13;;;18.80;99.90;;;;;;6164312;23;20413;-86
2021/09/26 05:19:14;;;;;;;7.83;7.07;;;18.80;99.90;;;;;;6167281;23;20456;-84
2021/09/26 05:21:41;;;;;;;8.00;7.27;;;18.80;99.90;;;;;;6140188;23;20449;-86
2021/09/26 05:24:08;;;;;;;7.70;6.90;;;18.80;99.90;;;;;;6165495;23;20813;-85
2021/09/26 05:26:35;;;;;;;6.93;6.33;;;18.90;99.90;;;;;;6164745;23;20441;-86
2021/09/26 05:29:03;;;;;;;7.60;6.90;;;19.00;99.90;;;;;;6165061;23;21317;-86
2021/09/26 05:31:30;;;;;;;7.13;6.53;;;18.90;99.90;;;;;;6158921;23;20406;-86
2021/09/26 05:33:57;;;;;;;8.00;7.30;;;18.90;99.90;;;;;;6183139;23;20559;-86
2021/09/26 05:36:25;;;;;;;7.97;7.20;;;18.80;99.90;;;;;;6182400;23;20478;-86
2021/09/26 05:38:53;;;;;;;7.87;7.07;;;18.80;99.90;;;;;;6178723;23;20418;-86
2021/09/26 05:41:20;;;;;;;7.70;7.00;;;18.90;99.90;;;;;;6163894;23;20445;-84
2021/09/26 05:43:47;;;;;;;7.97;7.27;;;18.90;99.90;;;;;;6131082;23;20448;-86
2021/09/26 05:46:15;;;;;;;7.70;6.50;;;19.00;99.90;;;;;;6156499;23;20444;-86
2021/09/26 05:48:42;;;;;;;7.60;6.90;;;18.90;99.90;;;;;;6153568;23;20487;-83
2021/09/26 05:51:08;;;;;;;7.80;7.10;;;19.10;99.90;;;;;;6160140;23;20519;-84
2021/09/26 05:53:35;;;;;;;8.23;7.43;;;19.00;99.90;;;;;;6159541;23;20504;-85
2021/09/26 05:56:02;;;;;;;8.20;7.40;;;19.00;99.90;;;;;;6156309;23;20439;-85
2021/09/26 05:58:28;;;;;;;7.60;6.90;;;19.00;99.90;;;;;;6154420;23;21231;-84
2021/09/26 06:00:55;;;;;;;7.57;6.90;;;19.00;99.90;;;;;;6160752;23;20866;-82
2021/09/26 06:03:22;;;;;;;7.90;7.30;;;18.90;99.90;;;;;;6157418;23;20981;-83
2021/09/26 06:05:51;;;;;;;7.70;7.00;;;19.00;99.90;;;;;;6172588;23;20471;-87
2021/09/26 06:08:17;;;;;;;7.13;6.63;;;19.00;99.90;;;;;;6178588;23;20436;-88
2021/09/26 06:10:44;;;;;;;6.73;6.13;;;18.90;99.90;;;;;;6172802;23;20409;-87
2021/09/26 06:13:11;;;;;;;7.20;6.50;;;18.80;99.90;;;;;;6165326;23;20432;-87
2021/09/26 06:15:38;;;;;;;8.40;7.70;;;18.90;99.90;;;;;;6156018;23;20414;-85
2021/09/26 06:18:05;;;;;;;7.67;7.07;;;19.10;99.90;;;;;;6159966;23;21122;-85
2021/09/26 06:20:32;;;;;;;8.03;7.10;;;19.20;99.90;;;;;;6159136;23;20758;-86
2021/09/26 06:22:59;;;;;;;7.50;6.80;;;19.20;99.90;;;;;;6160658;23;20846;-86
2021/09/26 06:25:28;;;;;;;7.37;6.70;;;19.20;99.90;;;;;;6157196;23;20414;-86
2021/09/26 06:27:58;;;;;;;7.87;7.13;;;19.30;99.90;;;;;;6157115;23;20434;-84
2021/09/26 06:30:25;;;;;;;8.23;7.47;;;19.40;99.90;;;;;;6158046;23;20417;-86
2021/09/26 06:32:55;;;;;;;7.90;7.20;;;19.40;99.90;;;;;;6161932;23;20908;-84
2021/09/26 06:35:30;;;;;;;7.50;6.80;;;19.30;99.90;;;;;;6171307;23;20417;-86
2021/09/26 06:38:06;;;;;;;8.73;7.93;;;19.50;99.90;;;;;;6168784;23;20434;-87
2021/09/26 06:41:19;;;;;;;9.97;7.53;;;19.70;99.90;;;;;;6150443;23;20732;-85
2021/09/26 06:44:13;;;;;;;8.70;7.80;;;19.60;99.90;;;;;;6173284;23;20406;-86
2021/09/26 06:46:52;;;;;;;8.93;7.80;;;19.70;99.90;;;;;;6143700;23;20449;-84
2021/09/26 06:49:40;;;;;;;9.00;8.10;;;19.70;99.90;;;;;;6143461;23;20422;-83
2021/09/26 06:52:09;;;;;;;8.03;7.33;;;19.80;99.90;;;;;;6165562;23;20425;-82
2021/09/26 06:54:41;;;;;;;8.77;7.97;;;19.80;99.90;;;;;;6155304;23;20486;-83
2021/09/26 06:57:17;;;;;;;8.93;8.00;;;19.90;99.90;;;;;;6139954;23;20416;-82
2021/09/26 06:59:44;;;;;;;11.10;6.67;;;19.90;99.90;;;;;;6153995;23;20442;-84
2021/09/26 07:02:11;;;;;;;8.90;8.00;;;20.00;99.90;;;;;;6123762;23;20473;-83
2021/09/26 07:04:42;;;;;;;8.13;7.43;;;20.00;99.90;;;;;;6128528;23;20390;-82
2021/09/26 07:07:09;;;;;;;8.30;7.60;;;20.20;99.90;;;;;;6152275;23;20433;-83
2021/09/26 07:09:36;;;;;;;9.10;7.70;;;21.30;99.90;;;;;;6151764;23;20434;-83
2021/09/26 07:12:09;;;;;;;8.13;7.30;;;22.90;98.80;;;;;;6091224;23;21043;-83
2021/09/26 07:15:01;;;;;;;8.87;7.67;;;24.20;96.20;;;;;;6080869;23;20472;-84
2021/09/26 07:17:31;;;;;;;8.07;7.03;;;25.10;94.00;;;;;;6157548;23;20422;-84
2021/09/26 07:20:01;;;;;;;8.00;7.30;;;26.00;92.40;;;;;;6157588;23;20638;-82
2021/09/26 07:22:33;;;;;;;7.87;6.83;;;26.70;90.50;;;;;;6159085;23;20477;-82
2021/09/26 07:25:08;;;;;;;8.13;7.37;;;27.10;89.20;;;;;;6156539;23;20393;-83
2021/09/26 07:27:51;;;;;;;7.97;7.30;;;27.30;88.10;;;;;;6155834;23;21020;-84
2021/09/26 07:30:21;;;;;;;7.60;6.90;;;27.70;86.20;;;;;;6121528;23;20449;-82
2021/09/26 07:32:55;;;;;;;8.27;7.57;;;28.00;85.10;;;;;;6127478;23;20418;-82
2021/09/26 07:35:41;;;;;;;9.10;7.30;;;28.20;84.20;;;;;;6152555;23;20428;-82
2021/09/26 07:38:27;;;;;;;;;;;;;;;;;;;;;
2021/09/26 07:41:01;;;;;;;7.27;6.60;;;28.70;81.50;;;;;;6152998;23;20441;-85
2021/09/26 07:43:37;;;;;;;7.40;6.57;;;29.50;79.40;;;;;;6151408;23;20402;-85
2021/09/26 07:46:04;;;;;;;7.20;6.60;;;29.60;77.50;;;;;;6141620;23;20413;-83
2021/09/26 07:48:46;;;;;;;7.67;6.80;;;29.50;77.00;;;;;;6146531;23;20449;-83
2021/09/26 07:51:18;;;;;;;7.87;6.27;;;29.10;77.20;;;;;;6148922;23;20413;-84
2021/09/26 07:53:45;;;;;;;8.70;7.80;;;26.60;84.30;;;;;;6148604;23;20501;-83
2021/09/26 07:56:47;;;;;;;7.50;6.90;;;24.90;91.20;;;;;;6148210;23;20449;-85
2021/09/26 07:59:19;;;;;;;9.27;8.20;;;23.90;93.50;;;;;;6143943;23;21067;-86
2021/09/26 08:01:49;;;;;;;8.30;7.50;;;23.20;95.60;;;;;;6149376;23;20506;-83
2021/09/26 08:04:19;;;;;;;8.67;7.93;;;23.00;96.80;;;;;;6154156;23;20434;-82
2021/09/26 08:06:48;;;;;;;7.77;6.97;;;22.70;97.60;;;;;;6148254;23;20442;-84
2021/09/26 08:09:16;;;;;;;8.47;7.77;;;22.40;98.80;;;;;;6142781;23;20489;-82
2021/09/26 08:11:55;;;;;;;8.77;7.97;;;22.10;99.60;;;;;;6146498;23;21134;-83
2021/09/26 08:14:36;;;;;;;8.37;7.57;;;21.90;99.90;;;;;;6162734;23;20408;-82
2021/09/26 08:17:12;;;;;;;8.37;7.50;;;22.10;99.90;;;;;;6173560;23;20397;-84
2021/09/26 08:19:39;;;;;;;9.20;8.30;;;22.10;99.90;;;;;;6174962;23;20422;-82
2021/09/26 08:22:09;;;;;;;9.20;8.03;;;22.10;99.90;;;;;;6179038;23;20457;-83
2021/09/26 08:24:37;;;;;;;8.83;7.87;;;22.10;99.90;;;;;;6167186;23;20429;-83
2021/09/26 08:27:09;;;;;;;8.53;7.73;;;22.20;99.90;;;;;;6126744;23;20928;-83
2021/09/26 08:29:37;;;;;;;8.33;7.60;;;22.30;99.90;;;;;;6151826;23;20444;-85
2021/09/26 08:32:15;;;;;;;6.67;6.07;;;22.20;99.90;;;;;;6155255;23;20441;-83
2021/09/26 08:34:56;;;;;;;10.30;7.47;;;22.10;99.90;;;;;;6151313;23;20422;-85
2021/09/26 08:37:28;;;;;;;7.93;7.10;;;22.10;99.90;;;;;;6150152;23;20497;-83
2021/09/26 08:39:59;;;;;;;7.00;6.37;;;22.20;99.90;;;;;;6152598;23;20468;-84
2021/09/26 08:42:42;;;;;;;11.33;7.80;;;22.40;99.90;;;;;;6123618;23;20509;-85
2021/09/26 08:45:22;;;;;;;8.17;7.27;;;22.40;99.90;;;;;;6155059;23;20412;-83
2021/09/26 08:47:48;;;;;;;7.63;7.03;;;22.30;99.90;;;;;;6155072;23;20465;-83
2021/09/26 08:50:23;;;;;;;7.47;6.87;;;22.30;99.90;;;;;;6147426;23;20960;-84
2021/09/26 08:52:49;;;;;;;7.87;7.17;;;22.50;99.90;;;;;;6147543;23;20450;-84
2021/09/26 08:55:19;;;;;;;7.90;7.20;;;22.60;99.70;;;;;;6153452;23;20420;-83
2021/09/26 08:57:45;;;;;;;7.60;6.90;;;22.60;99.30;;;;;;6161227;23;20394;-83
2021/09/26 09:00:16;;;;;;;7.40;6.80;;;22.60;99.30;;;;;;6162342;23;20422;-83
2021/09/26 09:02:49;;;;;;;6.77;6.17;;;22.50;99.50;;;;;;6160091;23;20430;-82
2021/09/26 09:05:27;;;;;;;7.47;6.77;;;22.60;99.40;;;;;;6153848;23;20402;-83
2021/09/26 09:08:25;;;;;;;7.27;6.67;;;22.60;99.40;;;;;;6143051;23;20464;-84
2021/09/26 09:11:02;;;;;;;7.40;6.70;;;22.70;99.20;;;;;;6149793;23;20410;-86
2021/09/26 09:13:42;;;;;;;6.10;5.60;;;22.80;99.00;;;;;;6150908;23;20845;-82
2021/09/26 09:16:19;;;;;;;6.97;6.23;;;23.00;98.80;;;;;;6147490;23;20410;-82
2021/09/26 09:18:52;;;;;;;6.93;6.23;;;23.10;98.40;;;;;;6149937;23;20430;-85
2021/09/26 09:21:35;;;;;;;7.77;6.43;;;23.00;98.30;;;;;;6150033;23;20517;-85
2021/09/26 09:24:26;;;;;;;8.27;6.87;;;23.10;98.70;;;;;;6144203;23;20424;-86
2021/09/26 09:27:15;;;;;;;7.27;6.57;;;23.00;98.70;;;;;;6160818;23;20408;-83
2021/09/26 09:29:51;;;;;;;6.20;5.63;;;23.10;98.50;;;;;;6173766;23;20422;-85
2021/09/26 09:32:18;;;;;;;6.50;5.90;;;23.20;98.40;;;;;;6165439;23;20982;-84
2021/09/26 09:34:49;;;;;;;8.53;6.63;;;23.40;97.90;;;;;;6160703;23;21595;-86
2021/09/26 09:37:33;;;;;;;6.33;5.00;;;23.30;97.90;;;;;;6153548;23;20500;-83
2021/09/26 09:40:16;;;;;;;6.23;5.60;;;24.00;97.30;;;;;;6151271;23;20453;-84
2021/09/26 09:42:47;;;;;;;7.10;5.40;;;25.70;94.20;;;;;;6145968;23;20489;-83
2021/09/26 09:45:36;;;;;;;5.53;5.07;;;26.90;92.00;;;;;;6151619;23;20406;-83
2021/09/26 09:48:08;;;;;;;6.70;6.10;;;27.70;89.90;;;;;;6156894;23;20434;-83
2021/09/26 09:51:19;;;;;;;6.57;4.63;;;28.50;86.80;;;;;;6155031;23;20410;-85
2021/09/26 09:54:03;;;;;;;7.00;4.67;;;28.90;84.50;;;;;;6149558;23;20386;-84
2021/09/26 09:56:45;;;;;;;4.73;4.30;;;29.40;80.90;;;;;;6150595;23;21255;-85
2021/09/26 09:59:36;;;;;;;4.80;4.03;;;29.60;78.90;;;;;;6144845;23;20970;-84
2021/09/26 10:02:13;;;;;;;3.33;3.03;;;29.90;77.70;;;;;;6147105;23;20426;-83
2021/09/26 10:04:50;;;;;;;4.03;3.20;;;30.20;73.70;;;;;;6143357;23;20414;-86
2021/09/26 10:07:28;;;;;;;2.93;2.57;;;30.10;71.50;;;;;;6146319;23;20541;-84
2021/09/26 10:10:15;;;;;;;3.53;2.90;;;29.30;73.70;;;;;;6142976;23;20438;-84
2021/09/26 10:13:48;;;;;;;4.90;2.80;;;29.90;71.00;;;;;;6146990;23;20458;-85
2021/09/26 10:16:54;;;;;;;3.40;3.10;;;30.60;68.30;;;;;;5916848;24;20461;-85
2021/09/26 10:19:25;;;;;;;2.67;2.50;;;30.80;66.50;;;;;;5893937;24;20489;-87
2021/09/26 10:22:22;;;;;;;3.10;2.80;;;30.20;67.30;;;;;;6084783;23;20562;-85
2021/09/26 10:24:51;;;;;;;3.27;2.47;;;28.70;71.20;;;;;;6151792;23;20449;-86
2021/09/26 10:27:22;;;;;;;3.27;2.97;;;28.20;74.40;;;;;;6150493;23;20897;-84
2021/09/26 10:30:21;;;;;;;2.80;2.50;;;27.90;74.80;;;;;;6150241;23;20430;-84
2021/09/26 10:32:49;;;;;;;2.93;2.63;;;27.80;74.60;;;;;;6147181;23;20440;-85
2021/09/26 10:35:16;;;;;;;3.10;2.90;;;28.60;72.90;;;;;;6141533;23;20445;-85
2021/09/26 10:37:43;;;;;;;3.30;2.30;;;28.40;72.60;;;;;;6145091;23;20468;-85
2021/09/26 10:40:14;;;;;;;4.00;2.20;;;27.90;74.10;;;;;;6150164;23;20899;-85
2021/09/26 10:42:41;;;;;;;3.53;2.90;;;27.80;75.20;;;;;;6149576;23;20573;-85
2021/09/26 10:45:09;;;;;;;4.50;3.03;;;27.60;75.40;;;;;;6146872;23;20781;-84
2021/09/26 10:47:38;;;;;;;3.00;2.70;;;27.50;77.40;;;;;;6149744;23;20458;-84
2021/09/26 10:50:12;;;;;;;4.40;3.30;;;28.00;77.50;;;;;;6148119;23;20420;-84
2021/09/26 10:52:44;;;;;;;3.87;3.47;;;28.10;76.40;;;;;;6147095;23;20480;-83
2021/09/26 10:55:27;;;;;;;3.47;3.10;;;28.40;76.70;;;;;;6144563;23;20402;-85
2021/09/26 10:58:00;;;;;;;3.70;3.20;;;28.40;75.70;;;;;;6146793;23;20402;-83
2021/09/26 11:00:34;;;;;;;4.57;3.30;;;27.80;77.00;;;;;;6146449;23;20425;-84
2021/09/26 11:03:13;;;;;;;3.63;3.33;;;27.30;79.50;;;;;;6146687;23;20449;-86
2021/09/26 11:05:55;;;;;;;4.37;3.97;;;27.00;81.00;;;;;;6145398;23;20394;-82
2021/09/26 11:08:23;;;;;;;4.07;3.67;;;26.60;82.40;;;;;;6144461;23;21160;-86
2021/09/26 11:10:55;;;;;;;4.43;3.90;;;26.30;84.30;;;;;;6135566;23;20410;-83
2021/09/26 11:13:34;;;;;;;4.30;3.90;;;26.00;85.90;;;;;;6148406;23;20472;-84
2021/09/26 11:16:18;;;;;;;4.10;3.60;;;25.50;88.20;;;;;;6145585;23;21111;-84
2021/09/26 11:18:58;;;;;;;5.53;4.00;;;25.50;89.80;;;;;;6146338;23;20525;-85
2021/09/26 11:21:37;;;;;;;4.33;3.53;;;25.50;89.60;;;;;;6148151;23;20452;-83
2021/09/26 11:24:10;;;;;;;3.57;2.87;;;25.30;90.20;;;;;;6148942;23;20430;-83
2021/09/26 11:27:13;;;;;;;3.80;3.43;;;25.20;89.70;;;;;;6151861;23;20424;-83
2021/09/26 11:29:43;;;;;;;7.10;3.20;;;24.90;90.30;;;;;;6143925;23;20454;-84
2021/09/26 11:32:16;;;;;;;3.60;3.00;;;24.80;90.70;;;;;;6147063;23;20499;-84
2021/09/26 11:34:45;;;;;;;5.63;3.33;;;24.90;90.50;;;;;;6149688;23;20481;-86
2021/09/26 11:37:13;;;;;;;4.20;3.20;;;24.90;90.30;;;;;;6148474;23;20946;-86
2021/09/26 11:39:49;;;;;;;3.77;2.70;;;24.70;90.30;;;;;;6151019;23;20453;-84
2021/09/26 11:42:34;;;;;;;5.20;3.63;;;25.10;90.60;;;;;;6149605;23;20445;-83
2021/09/26 11:45:08;;;;;;;3.77;2.80;;;25.30;89.90;;;;;;6147444;23;21134;-85
2021/09/26 11:47:35;;;;;;;3.40;3.00;;;25.20;90.00;;;;;;6151049;23;20390;-83
2021/09/26 11:50:09;;;;;;;2.60;2.40;;;25.40;89.20;;;;;;6151667;23;20498;-84
2021/09/26 11:52:39;;;;;;;4.00;2.87;;;25.50;88.30;;;;;;6143266;23;20513;-84
2021/09/26 11:55:06;;;;;;;4.67;2.67;;;25.40;88.10;;;;;;6139490;23;20440;-84
2021/09/26 11:57:34;;;;;;;10.13;3.13;;;25.20;89.40;;;;;;6139806;23;20414;-84
2021/09/26 12:00:00;;;;;;;6.77;2.93;;;25.10;90.40;;;;;;6144359;23;20505;-84
2021/09/26 12:02:33;;;;;;;4.20;3.80;;;25.10;90.30;;;;;;6143771;23;20441;-85
2021/09/26 12:05:01;;;;;;;4.97;3.47;;;25.10;90.30;;;;;;6142741;23;20401;-84
2021/09/26 12:07:31;;;;;;;3.30;3.00;;;25.00;90.10;;;;;;6145482;23;20410;-84
2021/09/26 12:09:59;;;;;;;5.30;2.97;;;24.90;90.40;;;;;;6148686;23;20433;-85
2021/09/26 12:12:27;;;;;;;2.90;2.60;;;24.70;90.50;;;;;;6150330;23;21007;-85
2021/09/26 12:15:06;;;;;;;6.83;2.60;;;24.80;90.20;;;;;;6151083;23;20406;-85
2021/09/26 12:17:36;;;;;;;3.40;3.10;;;24.70;90.20;;;;;;6152368;23;20449;-84
2021/09/26 12:20:07;;;;;;;5.20;2.97;;;24.50;90.40;;;;;;6150870;23;20505;-84
2021/09/26 12:22:35;;;;;;;4.23;2.80;;;24.60;90.80;;;;;;6143631;23;20434;-85
2021/09/26 12:25:11;;;;;;;3.30;2.90;;;24.60;90.70;;;;;;6150245;23;20466;-84
2021/09/26 12:27:47;;;;;;;3.57;2.60;;;24.40;90.80;;;;;;6147282;23;20428;-85
2021/09/26 12:30:29;;;;;;;3.70;3.00;;;24.40;91.30;;;;;;6143852;23;20394;-83
2021/09/26 12:33:03;;;;;;;3.73;3.40;;;24.30;91.40;;;;;;6148292;23;20425;-84
2021/09/26 12:35:40;;;;;;;2.77;2.47;;;24.20;91.70;;;;;;6147827;23;20480;-85
2021/09/26 12:38:36;;;;;;;5.80;2.90;;;24.30;92.00;;;;;;6150228;23;20960;-83
2021/09/26 12:41:08;;;;;;;3.20;2.90;;;24.30;92.10;;;;;;6149510;23;20399;-83
2021/09/26 12:43:44;;;;;;;3.23;2.93;;;24.40;91.90;;;;;;6150810;23;20501;-85
2021/09/26 12:46:22;;;;;;;6.77;3.20;;;24.20;92.00;;;;;;6150146;23;20754;-86
2021/09/26 12:49:15;;;;;;;6.30;5.70;;;24.20;92.00;;;;;;6144795;23;20882;-84
2021/09/26 12:51:48;;;;;;;5.23;3.17;;;24.20;92.20;;;;;;6146850;23;20514;-83
2021/09/26 12:54:23;;;;;;;3.40;3.10;;;24.20;92.10;;;;;;6149881;23;20406;-84
2021/09/26 12:57:31;;;;;;;4.13;2.73;;;24.10;92.10;;;;;;6153025;23;20454;-85
2021/09/26 13:00:33;;;;;;;4.17;3.20;;;24.10;92.20;;;;;;6098558;23;20448;-83
2021/09/26 13:03:22;;;;;;;4.93;2.83;;;24.00;92.40;;;;;;6147056;23;20474;-85
2021/09/26 13:06:02;;;;;;;3.77;2.93;;;24.00;92.50;;;;;;6150641;23;20468;-84
2021/09/26 13:08:42;;;;;;;4.80;3.80;;;24.00;92.40;;;;;;6172568;23;20852;-83
2021/09/26 13:11:26;;;;;;;4.50;3.27;;;24.00;92.30;;;;;;6173444;23;20382;-85
2021/09/26 13:14:15;;;;;;;3.10;2.90;;;24.10;92.20;;;;;;6160596;23;20417;-86
2021/09/26 13:17:05;;;;;;;5.17;3.40;;;24.10;92.20;;;;;;6153866;23;20432;-84
2021/09/26 13:19:48;;;;;;;3.43;3.00;;;23.80;92.40;;;;;;6098380;23;20498;-85